Time,TemperatureF,DewpointF,PressureIn,WindDirection,WindDirectionDegrees,WindSpeedMPH,WindSpeedGustMPH,Humidity,HourlyPrecipIn,Conditions,Clouds,dailyrainin,SoftwareType,DateUTC
2013-10-23 00:00:00,56.7,55.0,29.97,NW,315,0.0,1.0,94,0.00,,---,0.00,VWS V14.01,2013-10-23 07:00:00,
2013-10-23 00:30:00,56.4,55.0,29.96,NW,315,0.0,1.0,95,0.00,,---,0.00,VWS V14.01,2013-10-23 07:30:00,
2013-10-23 01:00:00,55.9,54.5,29.97,NW,315,0.0,1.0,95,0.00,,---,0.00,VWS V14.01,2013-10-23 08:00:00,
2013-10-23 01:30:00,57.6,57.0,29.97,NW,315,0.0,1.0,98,0.00,,---,0.00,VWS V14.01,2013-10-23 08:30:00,
2013-10-23 02:00:00,59.4,58.3,29.96,WNW,292,0.0,2.0,96,0.00,,---,0.00,VWS V14.01,2013-10-23 09:00:00,
2013-10-23 02:30:00,60.3,58.9,29.96,NW,315,0.0,2.0,95,0.00,,---,0.00,VWS V14.01,2013-10-23 09:30:00,
2013-10-23 03:00:00,61.0,59.0,29.96,WNW,292,0.0,2.0,93,0.00,,---,0.00,VWS V14.01,2013-10-23 10:00:00,
2013-10-23 03:30:00,61.3,59.0,29.95,NW,315,0.0,1.0,92,0.00,,---,0.00,VWS V14.01,2013-10-23 10:30:00,
2013-10-23 04:00:00,61.3,58.7,29.95,WNW,292,0.0,2.0,91,0.00,,---,0.00,VWS V14.01,2013-10-23 11:00:00,
2013-10-23 04:30:00,61.4,58.8,29.94,NW,315,1.0,3.0,91,0.00,,---,0.00,VWS V14.01,2013-10-23 11:30:00,
2013-10-23 05:00:00,61.4,58.8,29.94,NW,315,0.0,3.0,91,0.00,,---,0.00,VWS V14.01,2013-10-23 12:00:00,
2013-10-23 05:30:00,61.5,58.5,29.95,NE,45,0.0,5.0,90,0.00,,---,0.00,VWS V14.01,2013-10-23 12:30:00,
2013-10-23 06:00:00,61.5,58.5,29.95,NE,45,0.0,0.0,90,0.00,,---,0.00,VWS V14.01,2013-10-23 13:00:00,
2013-10-23 06:30:00,61.6,58.3,29.96,NE,45,0.0,1.0,89,0.00,,---,0.00,VWS V14.01,2013-10-23 13:30:00,
2013-10-23 07:00:00,61.6,58.3,29.96,NE,45,0.0,1.0,89,0.00,,---,0.00,VWS V14.01,2013-10-23 14:00:00,
2013-10-23 07:30:00,61.7,58.4,29.96,NE,45,0.0,2.0,89,0.00,,---,0.00,VWS V14.01,2013-10-23 14:30:00,
2013-10-23 08:00:00,62.0,57.8,29.97,NE,45,1.0,4.0,86,0.00,,---,0.00,VWS V14.01,2013-10-23 15:00:00,
2013-10-23 08:30:00,62.5,58.3,29.97,NE,45,0.0,3.0,86,0.00,,---,0.00,VWS V14.01,2013-10-23 15:30:00,
2013-10-23 09:00:00,63.3,58.4,29.98,ENE,68,1.0,4.0,84,0.00,,---,0.00,VWS V14.01,2013-10-23 16:00:00,
2013-10-23 09:30:00,63.5,58.6,29.98,ENE,68,0.0,3.0,84,0.00,,---,0.00,VWS V14.01,2013-10-23 16:30:00,
2013-10-23 10:00:00,63.8,58.5,29.98,East,90,1.0,5.0,83,0.00,,---,0.00,VWS V14.01,2013-10-23 17:00:00,
2013-10-23 10:30:00,63.9,58.3,29.98,East,90,0.0,0.0,82,0.00,,---,0.00,VWS V14.01,2013-10-23 17:30:00,
2013-10-23 11:00:00,64.2,58.6,29.98,East,90,0.0,0.0,82,0.00,,---,0.00,VWS V14.01,2013-10-23 18:00:00,
2013-10-23 11:30:00,64.2,58.6,29.98,East,90,0.0,0.0,82,0.00,,---,0.00,VWS V14.01,2013-10-23 18:30:00,
2013-10-23 12:00:00,65.2,58.5,29.98,East,90,0.0,0.0,79,0.00,,---,0.00,VWS V14.01,2013-10-23 19:00:00,
2013-10-23 12:30:00,65.9,58.5,29.98,East,90,0.0,0.0,77,0.00,,---,0.00,VWS V14.01,2013-10-23 19:30:00,
2013-10-23 13:00:00,66.0,58.2,29.97,East,90,0.0,0.0,76,0.00,,---,0.00,VWS V14.01,2013-10-23 20:00:00,
2013-10-23 13:30:00,65.9,58.5,29.96,East,90,0.0,0.0,77,0.00,,---,0.00,VWS V14.01,2013-10-23 20:30:00,
2013-10-23 14:00:00,67.0,58.5,29.95,East,90,0.0,0.0,74,0.00,,---,0.00,VWS V14.01,2013-10-23 21:00:00,
2013-10-23 14:30:00,67.4,58.1,29.94,East,90,0.0,0.0,72,0.00,,---,0.00,VWS V14.01,2013-10-23 21:30:00,
2013-10-23 15:00:00,66.6,57.7,29.94,East,90,0.0,0.0,73,0.00,,---,0.00,VWS V14.01,2013-10-23 22:00:00,
2013-10-23 15:30:00,66.2,57.7,29.94,East,90,0.0,0.0,74,0.00,,---,0.00,VWS V14.01,2013-10-23 22:30:00,
2013-10-23 16:00:00,66.6,57.7,29.94,East,90,0.0,0.0,73,0.00,,---,0.00,VWS V14.01,2013-10-23 23:00:00,
2013-10-23 16:27:00,65.3,57.5,29.94,SSW,206,7.0,14.0,76,0.00,,---,0.00,VWS V14.01,2013-10-23 23:27:00,
2013-10-23 16:30:00,65.3,57.5,29.94,SSW,206,7.0,14.0,76,0.00,,---,0.00,VWS V14.01,2013-10-23 23:30:00,
2013-10-23 16:57:00,64.6,56.9,29.94,SSW,212,9.0,14.0,76,0.00,,---,0.00,VWS V14.01,2013-10-23 23:57:00,
2013-10-23 17:00:00,64.6,56.9,29.94,SSW,212,9.0,14.0,76,0.00,,---,0.00,VWS V14.01,2013-10-24 00:00:00,
2013-10-23 17:27:00,63.7,57.1,29.94,SSW,200,3.0,13.0,79,0.00,,---,0.00,VWS V14.01,2013-10-24 00:27:00,
2013-10-23 17:30:00,63.7,57.1,29.94,SSW,200,3.0,13.0,79,0.00,,---,0.00,VWS V14.01,2013-10-24 00:30:00,
2013-10-23 17:57:00,62.5,56.2,29.94,SSW,207,5.0,15.0,80,0.00,,---,0.00,VWS V14.01,2013-10-24 00:57:00,
2013-10-23 18:00:00,62.5,56.3,29.94,SSW,207,5.0,15.0,80,0.00,,---,0.00,VWS V14.01,2013-10-24 01:00:00,
2013-10-23 18:27:00,61.7,56.2,29.95,SSW,204,6.0,14.0,82,0.00,,---,0.00,VWS V14.01,2013-10-24 01:27:00,
2013-10-23 18:30:00,61.7,56.2,29.95,SSW,204,6.0,14.0,82,0.00,,---,0.00,VWS V14.01,2013-10-24 01:30:00,
2013-10-23 18:57:00,61.2,56.0,29.96,North,10,3.0,8.0,83,0.00,,---,0.00,VWS V14.01,2013-10-24 01:57:00,
2013-10-23 19:00:00,61.2,56.0,29.96,North,10,3.0,8.0,83,0.00,,---,0.00,VWS V14.01,2013-10-24 02:00:00,
2013-10-23 19:27:00,61.2,56.0,29.97,SSW,199,1.0,6.0,83,0.00,,---,0.00,VWS V14.01,2013-10-24 02:27:00,
2013-10-23 19:30:00,61.2,56.0,29.97,SSW,199,1.0,6.0,83,0.00,,---,0.00,VWS V14.01,2013-10-24 02:30:00,
2013-10-23 20:00:00,61.6,56.4,29.97,SSW,202,2.0,8.0,83,0.00,,---,0.00,VWS V14.01,2013-10-24 03:00:00,
2013-10-23 20:30:00,61.9,56.7,29.98,SSW,202,3.0,10.0,83,0.00,,---,0.00,VWS V14.01,2013-10-24 03:30:00,
2013-10-23 21:00:00,62.1,56.9,29.98,SSW,202,2.0,7.0,83,0.00,,---,0.00,VWS V14.01,2013-10-24 04:00:00,
2013-10-23 21:30:00,62.3,56.7,29.99,South,180,1.0,5.0,82,0.00,,---,0.00,VWS V14.01,2013-10-24 04:30:00,
2013-10-23 22:00:00,62.4,56.8,29.99,South,180,1.0,5.0,82,0.00,,---,0.00,VWS V14.01,2013-10-24 05:00:00,
2013-10-23 22:30:00,62.5,56.6,30.00,South,180,1.0,4.0,81,0.00,,---,0.00,VWS V14.01,2013-10-24 05:30:00,
2013-10-23 23:00:00,62.6,56.7,30.00,South,180,1.0,5.0,81,0.00,,---,0.00,VWS V14.01,2013-10-24 06:00:00,
2013-10-23 23:30:00,62.6,56.3,30.00,WNW,292,1.0,4.0,80,0.00,,---,0.00,VWS V14.01,2013-10-24 06:30:00,